Date,TemperatureHighF,TemperatureAvgF,TemperatureLowF,DewpointHighF,DewpointAvgF,DewpointLowF,HumidityHigh,HumidityAvg,HumidityLow,PressureMaxIn,PressureMinIn,WindSpeedMaxMPH,WindSpeedAvgMPH,GustSpeedMaxMPH,PrecipitationSumIn
2013-1-1,52,40,30,34,28,24,82,65,40,30.21,30.06,4,1,6,0.00
2013-1-2,60,44,30,34,28,24,81,56,25,30.09,29.95,7,1,8,0.00
2013-1-3,60,46,35,31,28,26,73,53,32,30.15,29.98,13,4,20,0.00
2013-1-4,57,47,38,31,28,25,60,47,33,30.25,30.14,13,4,16,0.00
2013-1-5,60,44,31,33,26,23,75,53,27,30.27,30.17,5,1,6,0.00
2013-1-6,65,46,32,30,24,22,70,47,21,30.17,29.93,5,1,7,0.00
2013-1-7,56,43,31,31,27,22,71,54,38,29.94,29.81,6,1,9,0.00
2013-1-8,58,43,31,33,28,23,74,57,36,30.09,29.90,4,1,6,0.00
2013-1-9,70,49,31,34,22,14,72,42,12,30.17,30.02,12,2,15,0.00
2013-1-10,65,56,39,35,26,20,52,34,23,30.04,29.80,12,2,17,0.00
2013-1-11,55,42,32,36,25,16,77,53,31,30.06,29.86,12,2,19,0.03
2013-1-12,48,35,25,22,15,10,69,47,23,30.08,29.95,9,1,10,0.00
2013-1-13,48,34,22,21,13,10,65,45,22,30.09,29.96,6,1,9,0.00
2013-1-14,45,33,21,18,11,6,64,43,24,30.16,30.01,10,2,11,0.00
2013-1-15,45,32,19,13,8,5,59,39,21,30.29,30.16,6,1,6,0.00
2013-1-16,56,41,27,14,10,7,45,30,17,30.29,30.18,5,1,9,0.00
2013-1-17,68,52,33,20,16,13,47,26,13,30.20,30.10,15,4,15,0.00
2013-1-18,72,56,43,25,20,16,39,25,13,30.20,30.07,14,2,14,0.00
2013-1-19,72,51,33,29,23,18,55,36,17,30.19,30.08,5,1,6,0.00
2013-1-20,74,53,37,40,28,22,58,40,25,30.16,30.00,5,1,5,0.00
2013-1-21,76,56,40,38,31,27,61,42,24,30.10,29.99,5,1,7,0.00
2013-1-22,77,56,40,39,32,28,63,42,20,30.18,30.06,4,1,5,0.00
2013-1-23,78,58,40,37,32,26,59,40,21,30.19,30.09,3,1,6,0.00
2013-1-24,64,58,52,50,42,30,72,56,43,30.22,30.15,4,0,5,0.03
2013-1-25,76,63,50,51,47,43,78,59,37,30.18,29.99,3,0,4,0.00
2013-1-26,68,61,54,57,51,48,83,71,49,30.00,29.92,9,1,12,0.61
2013-1-27,67,58,50,53,49,45,87,71,52,30.02,29.93,7,1,7,0.00
2013-1-28,57,53,47,48,42,32,78,67,51,29.99,29.92,12,3,17,0.07
2013-1-29,52,46,39,35,29,23,71,54,32,30.17,29.99,12,3,14,0.00
2013-1-30,57,44,32,32,27,24,74,53,28,30.29,30.15,6,1,8,0.00
2013-1-31,63,46,34,35,31,25,73,56,34,30.22,30.08,5,1,7,0.00
2013-2-1,70,50,33,37,31,26,76,53,25,30.21,30.10,5,1,6,0.00
2013-2-2,73,53,36,37,32,27,72,49,21,30.24,30.09,4,1,6,0.00
2013-2-3,69,58,50,40,37,34,64,47,29,30.13,29.96,5,1,6,0.00
2013-2-4,70,57,46,43,39,36,71,53,35,30.04,29.94,5,1,6,0.00
2013-2-5,72,56,42,46,39,34,77,56,33,30.03,29.91,7,1,8,0.00
2013-2-6,70,56,44,45,39,35,75,55,33,30.04,29.92,8,1,9,0.00
2013-2-7,68,54,40,43,35,29,74,52,30,30.12,29.96,8,1,8,0.00
2013-2-8,68,55,41,37,29,22,68,41,18,29.96,29.80,11,2,12,0.00
2013-2-9,54,46,38,38,30,25,80,55,34,30.02,29.81,10,2,13,0.07
2013-2-10,56,42,30,31,25,22,78,54,28,30.03,29.91,7,1,7,0.00
2013-2-11,54,39,29,36,29,21,82,69,41,30.13,29.95,10,1,10,0.19
2013-2-12,52,42,32,37,32,27,85,68,46,30.24,30.12,6,1,7,0.02
2013-2-13,59,47,31,32,28,23,79,50,25,30.18,30.05,5,1,7,0.00
2013-2-14,64,47,31,33,28,24,79,53,27,30.13,30.01,7,1,7,0.00
2013-2-15,72,53,37,38,27,17,76,44,13,30.22,30.11,11,2,14,0.00
2013-2-16,74,61,41,24,17,12,48,20,8,30.22,30.00,14,5,17,0.00
2013-2-17,73,54,36,26,18,12,51,28,9,30.00,29.85,11,2,11,0.00
2013-2-18,70,52,35,29,22,19,56,34,15,30.06,29.92,6,1,7,0.00
2013-2-19,70,55,39,31,22,15,55,32,13,29.94,29.73,12,3,13,0.00
2013-2-20,54,44,36,37,32,29,82,66,40,29.94,29.72,10,3,18,0.22
2013-2-21,56,44,35,38,33,30,84,67,45,30.03,29.92,6,1,8,0.27
2013-2-22,55,46,37,39,33,28,81,62,40,30.12,29.97,8,2,9,0.00
2013-2-23,64,47,31,34,29,25,81,54,23,30.12,29.84,7,1,7,0.00
2013-2-24,51,44,35,33,21,8,78,46,18,30.06,29.80,16,4,18,0.00
2013-2-25,58,43,29,24,20,16,65,42,23,30.19,30.02,8,1,8,0.00
2013-2-26,63,45,29,29,22,18,71,44,20,30.06,29.94,14,2,14,0.00
2013-2-27,63,47,31,25,18,9,65,37,13,30.19,30.06,11,2,11,0.00
2013-2-28,66,48,30,24,18,16,62,35,15,30.27,30.15,9,1,10,0.00
2013-3-1,72,52,31,25,22,18,61,35,14,30.30,30.17,5,1,7,0.00
2013-3-2,81,58,36,33,26,19,63,36,10,30.30,30.10,4,1,7,0.00
2013-3-3,79,61,41,36,27,20,61,32,12,30.12,29.93,7,2,10,0.00
2013-3-4,72,63,50,34,30,23,46,30,18,30.08,29.89,11,3,18,0.00
2013-3-5,80,60,42,36,31,26,63,37,16,30.11,29.98,8,2,11,0.00
2013-3-6,80,64,50,38,32,28,53,34,16,30.04,29.90,6,1,9,0.00
2013-3-7,79,61,43,36,28,19,59,33,11,29.98,29.88,13,2,15,0.00
2013-3-8,69,59,47,46,38,30,61,46,33,29.97,29.79,19,6,22,0.01
2013-3-9,55,50,45,38,35,32,68,58,49,30.06,29.96,8,2,11,0.02
2013-3-10,67,54,41,40,34,28,74,50,27,30.15,30.03,9,2,11,0.00
2013-3-11,72,55,36,36,31,26,68,43,22,30.14,30.00,6,2,9,0.00
2013-3-12,80,59,39,38,32,27,66,40,15,30.09,29.98,6,1,8,0.00
2013-3-13,53,50,49,33,32,32,52,50,46,30.11,30.09,1,0,2,0.00
2013-3-15,91,78,60,29,26,23,29,16,6,29.96,29.92,10,3,14,0.00
2013-3-16,88,68,47,33,26,18,51,24,5,29.96,29.77,11,2,14,0.00
2013-3-17,83,66,48,28,24,20,40,23,10,29.95,29.83,16,3,18,0.00
2013-3-18,81,65,48,36,26,20,44,26,11,30.02,29.92,8,2,10,0.00
2013-3-19,80,65,50,39,30,25,47,29,16,30.05,29.95,9,2,12,0.00
2013-3-20,82,66,48,37,30,28,49,30,15,30.06,29.90,7,1,10,0.00
2013-3-21,78,65,51,38,33,30,48,32,21,29.90,29.76,7,1,8,0.00
2013-3-22,80,71,56,37,33,28,45,25,17,29.84,29.72,11,4,13,0.00
2013-3-23,74,62,48,36,23,12,49,26,7,29.99,29.84,13,3,15,0.00
2013-3-24,76,58,40,20,14,9,39,20,7,30.02,29.88,10,2,12,0.00
2013-3-25,80,62,40,23,18,12,37,21,10,30.01,29.90,8,2,9,0.00
2013-3-26,86,66,47,28,21,15,38,20,6,29.99,29.85,8,1,9,0.00
2013-3-27,86,68,47,29,22,16,40,21,10,30.02,29.91,10,2,14,0.00
2013-3-28,85,69,49,36,25,20,37,21,10,30.06,29.97,6,2,11,0.00
2013-3-29,86,70,52,36,25,18,34,20,8,30.10,30.00,10,2,10,0.00
2013-3-30,84,69,54,30,25,20,31,21,10,30.08,29.95,8,2,10,0.00
2013-3-31,86,68,48,34,28,23,44,26,12,30.06,29.92,9,2,10,0.00
2013-4-1,82,68,49,38,30,22,45,26,16,30.03,29.90,9,2,10,0.00
2013-4-2,78,64,46,31,24,18,41,24,11,29.98,29.89,13,3,14,0.00
2013-4-3,82,65,45,32,27,22,43,26,13,30.05,29.95,8,2,10,0.00
2013-4-4,90,70,48,36,27,19,45,23,7,30.08,29.93,8,1,8,0.00
2013-4-5,87,72,54,36,29,25,39,22,12,30.00,29.87,10,2,14,0.00
2013-4-6,85,71,53,38,31,27,40,25,13,30.00,29.85,12,2,12,0.00
2013-4-7,86,71,54,40,32,25,47,26,11,29.92,29.78,8,2,14,0.00
2013-4-8,84,69,50,42,35,28,73,31,16,29.80,29.47,20,7,25,0.02
2013-4-9,66,57,49,44,34,24,77,47,23,29.90,29.65,14,3,15,0.09
2013-4-10,69,61,49,31,29,26,49,31,21,30.00,29.90,12,3,15,0.00
2013-4-11,79,62,42,36,30,24,62,34,15,30.00,29.79,10,2,12,0.00
2013-4-12,82,65,49,35,29,22,46,28,12,29.85,29.76,10,2,11,0.00
2013-4-13,85,68,48,35,28,22,49,26,11,29.89,29.76,9,2,10,0.00
2013-4-14,85,70,52,39,31,24,46,26,11,29.84,29.72,16,3,16,0.00
2013-4-15,88,75,61,40,33,24,38,24,11,29.85,29.73,15,4,16,0.00
2013-4-16,86,73,57,40,34,27,43,26,13,29.86,29.74,15,5,16,0.00
2013-4-17,68,62,51,42,27,14,50,29,15,30.01,29.82,13,4,19,0.00
2013-4-18,73,58,40,22,16,12,40,21,10,30.12,30.00,11,2,14,0.00
2013-4-19,81,62,40,22,15,8,39,17,5,30.14,29.95,9,2,11,0.00
2013-4-20,85,65,41,22,18,8,35,18,7,30.00,29.90,9,2,12,0.00
2013-4-21,89,69,46,29,23,19,39,19,6,30.06,29.94,8,2,11,0.00
2013-4-22,91,72,50,33,24,19,39,18,5,30.00,29.82,11,2,11,0.00
2013-4-23,89,72,52,30,24,20,35,18,7,29.92,29.82,10,2,14,0.00
2013-4-24,93,75,56,35,27,22,37,19,6,29.95,29.85,11,2,11,0.00
2013-4-25,87,74,62,37,28,22,34,20,7,30.05,29.90,17,4,17,0.00
2013-4-26,89,70,49,36,28,24,42,23,10,30.12,30.01,8,2,10,0.00
2013-4-27,92,73,52,35,27,21,43,21,6,30.09,29.92,8,2,10,0.00
2013-4-28,95,76,54,35,26,16,40,17,5,29.95,29.80,8,2,11,0.00
2013-4-29,98,77,54,32,26,19,36,15,3,29.89,29.72,10,2,10,0.00
2013-4-30,97,79,57,37,27,20,33,15,5,29.86,29.74,11,2,12,0.00
2013-5-1,91,76,57,34,26,20,30,17,6,30.01,29.86,10,2,12,0.00
2013-5-2,92,76,57,33,24,17,33,15,6,30.12,30.00,14,4,20,0.00
2013-5-3,88,74,62,24,21,16,23,14,6,30.08,29.84,16,6,20,0.00
2013-5-4,94,77,57,33,25,18,32,15,6,29.88,29.74,14,2,15,0.00
2013-5-5,92,79,62,40,30,23,32,18,7,29.98,29.81,15,4,15,0.00
2013-5-6,87,74,61,49,42,33,61,35,16,30.00,29.90,10,2,10,0.03
2013-5-7,86,72,56,44,36,23,45,30,12,30.02,29.88,12,3,15,0.00
2013-5-8,84,70,56,45,38,35,51,33,18,30.05,29.93,9,2,9,0.00
2013-5-9,86,73,58,45,36,24,48,29,11,30.01,29.90,8,2,10,0.00
2013-5-10,90,73,56,42,36,28,43,28,13,30.08,29.94,12,2,15,0.00
2013-5-11,88,76,61,41,36,29,42,26,13,30.12,30.02,16,4,20,0.00
2013-5-12,92,80,66,41,34,27,33,21,10,30.16,29.98,13,4,17,0.00
2013-5-13,95,81,63,39,30,20,32,17,7,30.10,29.94,12,3,14,0.00
2013-5-14,99,84,69,42,33,24,35,18,8,30.02,29.87,7,2,10,0.00
2013-5-15,98,83,65,42,34,30,38,20,10,30.04,29.87,12,3,13,0.00
2013-5-16,99,83,63,41,32,24,32,17,6,29.97,29.81,11,2,13,0.00
2013-5-17,97,81,61,40,31,24,36,18,6,29.95,29.84,11,3,14,0.00
2013-5-18,92,79,62,40,30,25,34,19,8,29.98,29.86,12,2,14,0.00
2013-5-19,92,78,62,46,37,29,43,25,12,29.97,29.82,9,2,13,0.00
2013-5-20,92,78,60,44,32,22,41,21,10,29.94,29.84,18,3,18,0.00
2013-5-21,96,78,57,34,27,21,32,15,5,29.95,29.81,7,2,11,0.00
2013-5-22,100,81,60,36,29,22,32,16,6,29.87,29.73,10,2,14,0.00
2013-5-23,100,83,63,41,32,27,32,17,5,29.91,29.80,10,2,13,0.00
2013-5-24,99,83,64,45,33,24,33,17,3,29.98,29.86,10,2,11,0.00
2013-5-25,99,83,64,43,32,21,34,17,3,29.99,29.88,12,2,13,0.00
2013-5-26,97,81,60,38,28,16,32,14,2,30.00,29.89,9,2,12,0.00
2013-5-27,98,80,59,32,26,16,28,13,2,29.95,29.77,8,2,11,0.00
2013-5-28,96,80,59,34,29,25,31,16,5,29.83,29.67,10,3,14,0.00
2013-5-29,95,81,63,49,36,30,34,21,12,29.82,29.71,10,2,13,0.00
2013-5-30,98,85,69,54,44,33,49,28,11,29.90,29.79,10,2,13,0.00
2013-5-31,100,86,71,58,47,37,51,30,12,29.93,29.82,10,2,12,0.00
2013-6-1,106,88,65,46,39,32,41,21,5,29.90,29.75,7,1,8,0.00
2013-6-2,107,90,70,47,39,28,36,19,7,29.87,29.73,10,2,14,0.00
2013-6-3,104,88,67,44,36,26,35,16,5,29.91,29.80,9,2,11,0.00
2013-6-4,104,87,70,46,38,30,30,19,7,29.93,29.83,11,2,11,0.00
2013-6-5,102,85,65,44,34,24,34,17,5,29.95,29.82,9,2,10,0.00
2013-6-6,105,86,63,39,33,25,31,16,7,29.90,29.76,8,2,14,0.00
2013-6-7,108,89,67,42,35,28,34,15,5,29.87,29.71,8,2,10,0.00
2013-6-8,104,90,69,42,34,26,31,13,5,29.90,29.80,11,3,16,0.00
2013-6-9,104,89,70,46,35,27,35,15,3,29.97,29.84,11,3,17,0.00
2013-6-10,107,89,67,41,35,28,31,15,3,29.97,29.83,10,2,12,0.00
2013-6-11,108,90,69,41,35,26,32,13,3,29.95,29.84,10,3,12,0.00
2013-6-12,108,92,70,41,35,28,30,14,6,30.00,29.85,11,3,12,0.00
2013-6-13,104,92,76,51,43,34,35,20,11,29.99,29.83,14,3,14,0.00
2013-6-14,104,92,78,57,50,42,41,26,15,29.95,29.79,10,3,11,0.00
2013-6-15,104,88,78,68,56,45,58,35,20,29.96,29.84,10,2,14,0.35
2013-6-16,104,88,71,64,52,34,71,36,10,29.99,29.85,7,2,11,0.00
2013-6-17,104,88,68,50,40,30,49,22,7,30.00,29.84,10,2,10,0.00
2013-6-18,107,87,66,46,36,20,40,16,1,29.93,29.80,13,2,13,0.00
2013-6-19,106,87,64,38,32,25,31,14,3,29.87,29.75,10,2,13,0.00
2013-6-20,106,87,66,43,34,24,34,15,3,29.91,29.79,8,2,11,0.00
2013-6-21,106,89,68,44,35,26,33,14,3,29.94,29.81,11,3,13,0.00
2013-6-22,104,88,68,41,34,24,31,15,3,29.94,29.80,14,2,14,0.00
2013-6-23,104,87,65,40,34,27,34,16,3,29.91,29.75,16,3,16,0.00
2013-6-24,104,87,67,43,34,26,31,16,5,29.92,29.82,16,3,16,0.00
2013-6-25,103,86,66,46,34,24,37,17,3,30.00,29.88,9,2,10,0.00
2013-6-26,104,87,65,39,32,24,30,14,3,30.07,29.95,10,2,11,0.00
2013-6-27,106,89,69,45,36,25,28,17,8,30.10,29.93,16,3,16,0.00
2013-6-28,110,92,72,46,39,34,33,18,9,30.00,29.85,6,1,8,0.00
2013-6-29,113,96,78,48,43,38,28,17,9,29.94,29.80,10,2,19,0.00
2013-6-30,110,95,82,61,51,42,48,25,12,30.03,29.74,19,3,19,0.03
2013-7-1,109,92,78,62,58,51,53,34,17,29.97,29.83,9,2,17,0.00
2013-7-2,104,91,76,62,58,54,59,35,22,30.11,29.87,19,4,22,0.02
2013-7-3,106,93,76,59,53,46,46,28,17,29.96,29.76,10,3,12,0.00
2013-7-4,105,95,84,61,54,47,40,27,17,29.92,29.76,10,3,12,0.00
2013-7-5,103,87,77,67,62,54,67,46,27,29.95,29.80,14,2,17,0.02
2013-7-6,107,90,72,66,62,56,70,43,20,29.90,29.74,7,2,10,0.00
2013-7-7,110,91,78,65,60,53,54,38,18,29.90,29.77,10,2,17,0.01
2013-7-8,107,95,84,63,59,56,44,31,20,29.98,29.86,13,3,13,0.00
2013-7-9,101,91,81,69,64,59,62,42,30,30.09,29.91,15,4,15,0.06
2013-7-10,101,86,77,70,67,64,72,54,33,30.07,29.92,8,2,12,0.02
2013-7-11,96,85,75,71,68,66,78,59,41,30.04,29.92,10,2,11,0.13
2013-7-12,95,84,77,69,66,62,75,55,39,30.05,29.89,10,2,11,0.43
2013-7-13,102,89,77,68,65,61,70,47,29,30.01,29.87,10,2,10,0.00
2013-7-14,104,92,81,66,62,58,54,39,26,29.99,29.83,10,2,11,0.00
2013-7-15,105,91,79,66,62,59,58,41,24,29.93,29.78,10,3,17,0.00
2013-7-16,91,82,78,68,65,63,66,56,42,30.07,29.93,14,4,14,0.01
2013-7-17,99,88,78,66,60,54,65,41,24,30.07,29.94,13,4,13,0.03
2013-7-18,97,87,80,63,58,55,49,38,26,30.04,29.89,12,6,16,0.00
2013-7-19,95,86,80,66,62,59,51,44,32,30.00,29.85,10,3,11,0.00
2013-7-20,97,83,77,68,66,63,73,58,38,29.97,29.82,16,2,16,0.01
2013-7-21,97,85,76,70,66,63,75,55,35,30.00,29.90,10,2,12,0.00
2013-7-22,99,87,76,69,65,60,72,50,31,30.05,29.93,10,3,13,0.00
2013-7-23,99,89,76,65,62,58,59,42,29,30.05,29.90,11,3,13,0.00
2013-7-24,98,87,79,70,64,60,73,49,33,30.00,29.90,6,2,11,0.03
2013-7-25,96,84,78,71,68,66,73,61,41,30.06,29.98,6,1,9,0.00
2013-7-26,100,82,76,71,68,64,78,64,33,30.13,30.05,15,1,19,0.31
2013-7-27,97,84,74,72,68,63,80,61,34,30.08,29.91,8,1,12,0.02
2013-7-28,103,89,74,69,61,51,77,45,21,29.95,29.83,0,0,0,0.00
2013-7-29,102,88,73,58,53,49,53,32,18,30.05,29.94,0,0,0,0.00
2013-7-30,106,90,74,61,55,52,55,33,18,30.14,30.00,0,0,0,0.00
2013-7-31,107,90,81,62,58,53,49,34,19,30.10,29.98,0,0,0,0.00
2013-8-1,96,89,82,63,60,58,49,39,31,30.04,29.95,0,0,0,0.00
2013-8-2,96,86,77,67,63,60,58,48,35,30.02,29.95,0,0,0,0.00
2013-8-3,104,89,74,65,60,56,66,41,22,30.05,29.93,0,0,0,0.00
2013-8-4,95,88,79,63,59,56,49,39,28,30.07,29.94,0,0,0,0.00
2013-8-5,98,84,75,65,60,56,71,46,26,30.09,29.93,0,0,0,0.12
2013-8-6,90,80,73,68,65,60,78,63,46,30.08,30.00,0,0,0,0.03
2013-8-7,97,83,70,66,60,51,77,49,24,30.08,29.95,0,0,0,0.00
2013-8-8,101,85,69,59,50,37,61,34,13,30.02,29.89,0,0,0,0.00
2013-8-9,105,87,66,50,45,42,47,26,14,30.00,29.88,0,0,0,0.00
2013-8-10,104,89,74,49,43,36,40,22,14,30.06,29.92,0,0,0,0.00
2013-8-11,103,88,74,62,54,38,47,33,21,30.03,29.88,0,0,0,0.00
2013-8-12,105,90,72,63,53,36,55,32,15,29.98,29.87,0,0,0,0.00
2013-8-13,104,88,71,50,41,36,41,22,11,30.05,29.89,0,0,0,0.00
2013-8-14,107,90,76,60,52,41,42,29,17,30.01,29.87,0,0,0,0.00
2013-8-15,106,92,77,62,57,52,50,33,18,30.03,29.90,0,0,0,0.00
2013-10-20,66,58,52,22,20,19,29,23,18,29.96,29.90,0,0,0,0.00
2013-10-21,82,62,43,31,22,19,42,25,11,30.03,29.94,0,0,0,0.00
2013-10-22,88,68,45,36,24,20,41,22,8,30.07,29.93,0,0,0,2.59
2013-10-23,90,73,57,35,30,23,32,22,12,29.98,29.87,0,0,0,0.00
2013-10-24,89,69,52,38,32,26,45,27,13,30.02,29.88,2,0,2,0.00
2013-10-25,84,66,50,37,31,26,44,29,15,30.09,30.00,9,1,9,0.00
2013-10-26,85,65,47,38,31,26,49,30,13,30.14,30.00,6,1,6,0.00
2013-10-27,88,69,53,40,31,25,49,27,12,30.02,29.81,9,1,10,0.00
2013-10-28,81,66,52,40,33,26,49,30,15,29.94,29.85,14,2,15,0.00
2013-10-29,82,68,56,41,36,30,46,33,16,29.96,29.84,19,3,19,0.00
2013-10-30,69,57,48,42,35,27,61,44,28,30.04,29.92,9,2,11,0.00
2013-10-31,72,55,38,35,27,21,58,38,15,30.12,30.00,4,1,8,0.00
2013-11-1,84,57,39,32,26,21,50,33,13,30.18,30.01,5,1,8,0.00
2013-11-2,90,69,46,51,25,19,69,23,7,30.06,29.87,12,2,12,0.03
2013-11-3,83,68,55,59,48,41,86,54,26,29.98,29.78,10,1,11,0.05
2013-11-4,82,66,48,53,46,40,78,51,28,29.86,29.73,10,2,12,0.00
2013-11-5,75,62,51,51,43,39,74,53,29,30.12,29.86,8,1,8,0.00
2013-11-6,81,62,42,42,28,12,82,36,8,30.23,30.12,11,2,12,0.00
2013-11-7,86,72,62,30,20,6,27,15,10,30.20,30.04,12,5,17,0.00
2013-11-8,86,66,48,40,34,27,50,32,18,30.09,29.80,6,1,7,0.00
2013-11-9,87,65,46,42,36,31,58,37,18,30.11,30.01,6,1,6,0.00
2013-11-10,92,66,46,41,36,32,62,37,16,30.14,30.00,9,1,9,0.00
2013-11-11,90,68,47,45,37,32,60,36,17,30.13,30.01,7,1,10,0.00
2013-11-12,86,75,57,45,39,31,46,29,17,30.21,30.13,14,6,19,0.00
2013-11-13,80,70,63,45,43,41,48,39,29,30.21,30.03,14,6,17,0.00
2013-11-14,82,66,51,48,41,34,63,42,23,30.07,29.91,5,1,7,0.00
2013-11-15,77,64,51,51,44,34,58,49,36,29.91,29.72,10,3,16,0.00
2013-11-16,78,67,55,54,46,37,73,48,24,29.95,29.78,12,2,12,0.00
2013-11-17,76,65,52,50,45,43,71,51,34,30.09,29.95,4,1,6,0.00
2013-11-18,80,65,50,52,44,40,72,50,30,30.12,30.00,5,1,6,0.00
2013-11-19,85,62,44,50,40,36,73,49,22,30.05,29.89,5,1,7,0.00
2013-11-20,78,62,47,47,40,35,65,47,28,29.95,29.85,6,1,11,0.00
2013-11-21,79,64,50,51,44,38,70,49,29,29.98,29.90,6,1,6,0.00
2013-11-22,65,57,49,55,50,46,89,79,56,30.00,29.85,7,2,8,0.45
2013-11-23,54,50,48,49,46,44,91,86,74,30.08,29.98,11,3,11,1.21
2013-11-24,65,52,45,47,42,38,85,70,49,30.17,30.06,10,2,11,0.01
2013-11-25,63,48,37,45,39,33,89,72,47,30.21,30.13,5,1,6,0.00
2013-11-26,68,55,40,39,35,28,87,52,29,30.26,30.16,13,4,16,0.00
2013-11-27,65,57,47,29,27,25,47,32,25,30.16,30.03,13,7,16,0.00
2013-11-28,77,57,41,39,34,27,66,44,24,30.11,30.01,6,1,6,0.00
2013-11-29,78,57,39,49,40,34,83,59,31,30.19,30.08,3,0,5,0.00
2013-11-30,73,57,44,50,44,39,83,64,41,30.19,30.08,2,0,2,0.00
2013-12-1,75,58,47,53,45,41,83,66,40,30.21,30.13,3,0,6,0.00
2013-12-2,75,54,39,50,40,35,88,62,26,30.18,29.96,3,0,4,0.00
2013-12-3,76,56,40,43,37,27,81,55,18,29.96,29.78,3,1,6,0.00
2013-12-4,70,58,47,48,42,36,86,59,31,29.95,29.80,12,4,12,0.04
2013-12-5,52,46,35,44,37,28,89,73,51,30.09,29.91,5,1,6,0.23
2013-12-6,56,40,28,35,27,23,88,63,30,30.18,30.07,3,0,5,0.01
2013-12-7,63,43,28,34,27,23,86,59,24,30.09,29.98,4,1,5,0.00
2013-12-8,59,48,37,41,36,30,77,66,46,30.13,30.02,5,1,6,0.00
2013-12-9,54,43,31,33,25,21,73,51,29,30.26,30.08,4,1,8,0.00
2013-12-10,65,45,28,31,26,22,81,53,22,30.24,30.09,4,1,4,0.00
2013-12-11,78,54,33,44,34,25,78,50,29,30.21,30.11,6,2,10,0.00
2013-12-12,75,59,43,44,36,31,70,44,33,30.20,30.05,6,2,11,0.00
2013-12-13,66,46,34,37,32,28,82,63,32,30.19,30.04,4,1,5,0.00
2013-12-14,65,45,28,33,29,25,88,60,26,30.31,30.19,7,1,11,0.00
2013-12-15,69,50,32,32,28,24,78,47,23,30.29,30.15,11,2,17,0.00
2013-12-16,77,50,31,34,30,26,81,53,18,30.23,30.12,4,1,8,0.00
2013-12-17,83,54,33,36,30,27,80,47,16,30.23,30.06,5,1,12,0.00
2013-12-18,79,55,39,38,32,28,73,46,17,30.07,29.83,3,0,7,0.00
2013-12-19,71,53,37,34,30,27,72,44,20,29.84,29.67,18,3,23,0.00
2013-12-20,54,47,43,43,38,31,89,73,55,29.88,29.61,12,3,22,0.39
2013-12-21,52,46,39,42,39,35,91,76,52,30.10,29.87,12,2,23,0.06
2013-12-22,59,44,32,41,35,30,91,75,43,30.33,30.10,7,1,9,0.00
2013-12-23,67,48,30,36,29,23,91,55,23,30.40,30.28,14,3,21,0.00
2013-12-24,69,48,34,35,29,24,83,52,22,30.27,30.13,8,1,10,0.00
2013-12-25,69,50,30,34,29,24,90,53,24,30.30,30.18,18,5,26,0.00
2013-12-26,66,55,40,28,24,18,52,31,22,30.24,30.10,19,8,30,0.00
2013-12-27,68,52,33,26,23,18,67,36,19,30.24,30.12,21,6,28,0.00
2013-12-28,65,47,30,32,26,20,72,47,24,30.18,29.99,5,0,11,0.00
2013-12-29,66,47,31,33,30,27,84,56,26,30.19,30.00,9,1,14,0.00
2013-12-30,67,45,29,32,28,25,88,59,24,30.33,30.19,8,1,10,0.00
2013-12-31,73,47,28,30,27,24,84,52,17,30.30,30.12,4,0,8,0.00
2014-1-1,70,46,29,31,28,24,83,55,22,30.22,30.10,4,0,10,0.00
2014-1-2,75,52,32,31,28,25,80,46,19,30.22,30.08,12,4,19,0.00